sensor_id;sensor_type;location;lat;lon;timestamp;temperature;humidity
17795;DHT22;9021;50.882;4.326;2023-06-14T00:01:11;23.70;65.70
17795;DHT22;9021;50.882;4.326;2023-06-14T00:03:38;23.60;65.30
17795;DHT22;9021;50.882;4.326;2023-06-14T00:06:04;23.70;64.70
17795;DHT22;9021;50.882;4.326;2023-06-14T00:08:30;23.60;65.50
17795;DHT22;9021;50.882;4.326;2023-06-14T00:10:55;23.60;66.70
17795;DHT22;9021;50.882;4.326;2023-06-14T00:13:21;23.50;66.80
17795;DHT22;9021;50.882;4.326;2023-06-14T00:15:47;23.50;66.20
17795;DHT22;9021;50.882;4.326;2023-06-14T00:18:12;23.50;65.70
17795;DHT22;9021;50.882;4.326;2023-06-14T00:20:38;23.40;65.40
17795;DHT22;9021;50.882;4.326;2023-06-14T00:23:04;23.40;65.20
17795;DHT22;9021;50.882;4.326;2023-06-14T00:25:30;23.40;65.30
17795;DHT22;9021;50.882;4.326;2023-06-14T00:27:56;23.40;65.50
17795;DHT22;9021;50.882;4.326;2023-06-14T00:30:22;23.50;65.00
17795;DHT22;9021;50.882;4.326;2023-06-14T00:32:48;23.40;65.30
17795;DHT22;9021;50.882;4.326;2023-06-14T00:35:13;23.40;65.90
17795;DHT22;9021;50.882;4.326;2023-06-14T00:37:39;23.30;65.60
17795;DHT22;9021;50.882;4.326;2023-06-14T00:40:05;23.30;66.80
17795;DHT22;9021;50.882;4.326;2023-06-14T00:42:31;23.30;66.30
17795;DHT22;9021;50.882;4.326;2023-06-14T00:44:57;23.30;66.70
17795;DHT22;9021;50.882;4.326;2023-06-14T00:47:22;23.30;65.90
17795;DHT22;9021;50.882;4.326;2023-06-14T00:49:49;23.30;66.00
17795;DHT22;9021;50.882;4.326;2023-06-14T00:52:16;23.20;65.70
17795;DHT22;9021;50.882;4.326;2023-06-14T00:54:42;23.20;66.30
17795;DHT22;9021;50.882;4.326;2023-06-14T00:57:08;23.20;66.70
17795;DHT22;9021;50.882;4.326;2023-06-14T00:59:35;23.20;66.10
17795;DHT22;9021;50.882;4.326;2023-06-14T01:02:03;23.20;66.30
17795;DHT22;9021;50.882;4.326;2023-06-14T01:04:29;23.10;66.30
17795;DHT22;9021;50.882;4.326;2023-06-14T01:06:57;23.90;67.90
17795;DHT22;9021;50.882;4.326;2023-06-14T01:12:02;23.00;68.50
17795;DHT22;9021;50.882;4.326;2023-06-14T01:14:30;22.90;68.30
17795;DHT22;9021;50.882;4.326;2023-06-14T01:16:57;22.90;69.00
17795;DHT22;9021;50.882;4.326;2023-06-14T01:19:24;22.80;68.10
17795;DHT22;9021;50.882;4.326;2023-06-14T01:21:50;22.80;68.60
17795;DHT22;9021;50.882;4.326;2023-06-14T01:24:16;22.70;68.10
17795;DHT22;9021;50.882;4.326;2023-06-14T01:26:44;22.70;68.70
17795;DHT22;9021;50.882;4.326;2023-06-14T01:29:10;22.70;68.80
17795;DHT22;9021;50.882;4.326;2023-06-14T01:31:36;22.60;68.20
17795;DHT22;9021;50.882;4.326;2023-06-14T01:34:06;22.60;68.00
17795;DHT22;9021;50.882;4.326;2023-06-14T01:36:33;22.60;68.60
17795;DHT22;9021;50.882;4.326;2023-06-14T01:38:58;22.50;67.70
17795;DHT22;9021;50.882;4.326;2023-06-14T01:41:24;20.20;66.70
17795;DHT22;9021;50.882;4.326;2023-06-14T01:43:50;25.10;68.80
17795;DHT22;9021;50.882;4.326;2023-06-14T01:46:17;22.50;66.80
17795;DHT22;9021;50.882;4.326;2023-06-14T01:48:43;22.50;67.30
17795;DHT22;9021;50.882;4.326;2023-06-14T01:51:08;22.50;67.40
17795;DHT22;9021;50.882;4.326;2023-06-14T01:53:34;22.50;67.60
17795;DHT22;9021;50.882;4.326;2023-06-14T01:55:59;22.40;67.20
17795;DHT22;9021;50.882;4.326;2023-06-14T01:58:26;22.40;67.20
17795;DHT22;9021;50.882;4.326;2023-06-14T02:00:52;22.40;66.90
17795;DHT22;9021;50.882;4.326;2023-06-14T02:03:20;22.40;67.70
17795;DHT22;9021;50.882;4.326;2023-06-14T02:05:46;22.40;67.10
17795;DHT22;9021;50.882;4.326;2023-06-14T02:08:11;22.40;68.50
17795;DHT22;9021;50.882;4.326;2023-06-14T02:10:37;22.30;67.30
17795;DHT22;9021;50.882;4.326;2023-06-14T02:13:02;22.30;67.80
17795;DHT22;9021;50.882;4.326;2023-06-14T02:15:28;22.20;67.70
17795;DHT22;9021;50.882;4.326;2023-06-14T02:17:59;22.30;67.80
17795;DHT22;9021;50.882;4.326;2023-06-14T02:20:25;22.20;67.20
17795;DHT22;9021;50.882;4.326;2023-06-14T02:22:51;22.20;67.10
17795;DHT22;9021;50.882;4.326;2023-06-14T02:25:16;22.30;67.50
17795;DHT22;9021;50.882;4.326;2023-06-14T02:27:42;22.20;67.20
17795;DHT22;9021;50.882;4.326;2023-06-14T02:30:07;22.20;67.50
17795;DHT22;9021;50.882;4.326;2023-06-14T02:32:33;22.20;67.10
17795;DHT22;9021;50.882;4.326;2023-06-14T02:35:01;22.20;67.50
17795;DHT22;9021;50.882;4.326;2023-06-14T02:37:27;22.10;68.50
17795;DHT22;9021;50.882;4.326;2023-06-14T02:39:53;22.00;68.70
17795;DHT22;9021;50.882;4.326;2023-06-14T02:42:18;22.00;68.50
17795;DHT22;9021;50.882;4.326;2023-06-14T02:44:43;21.80;68.50
17795;DHT22;9021;50.882;4.326;2023-06-14T02:47:10;21.90;68.90
17795;DHT22;9021;50.882;4.326;2023-06-14T02:49:36;21.80;69.00
17795;DHT22;9021;50.882;4.326;2023-06-14T02:52:01;21.80;68.50
17795;DHT22;9021;50.882;4.326;2023-06-14T02:54:27;21.80;68.80
17795;DHT22;9021;50.882;4.326;2023-06-14T02:56:53;21.80;68.90
17795;DHT22;9021;50.882;4.326;2023-06-14T02:59:18;21.80;68.70
17795;DHT22;9021;50.882;4.326;2023-06-14T03:01:44;21.70;69.10
17795;DHT22;9021;50.882;4.326;2023-06-14T03:04:10;21.70;69.30
17795;DHT22;9021;50.882;4.326;2023-06-14T03:06:36;21.80;68.80
17795;DHT22;9021;50.882;4.326;2023-06-14T03:09:02;21.80;68.70
17795;DHT22;9021;50.882;4.326;2023-06-14T03:11:30;21.80;69.00
17795;DHT22;9021;50.882;4.326;2023-06-14T03:13:56;21.60;69.40
17795;DHT22;9021;50.882;4.326;2023-06-14T03:16:22;21.60;68.70
17795;DHT22;9021;50.882;4.326;2023-06-14T03:18:50;21.70;68.90
17795;DHT22;9021;50.882;4.326;2023-06-14T03:21:15;21.70;69.10
17795;DHT22;9021;50.882;4.326;2023-06-14T03:23:41;21.60;69.30
17795;DHT22;9021;50.882;4.326;2023-06-14T03:26:07;21.60;68.90
17795;DHT22;9021;50.882;4.326;2023-06-14T03:28:33;21.50;68.70
17795;DHT22;9021;50.882;4.326;2023-06-14T03:30:58;21.50;68.30
17795;DHT22;9021;50.882;4.326;2023-06-14T03:33:25;21.50;68.20
17795;DHT22;9021;50.882;4.326;2023-06-14T03:35:51;21.50;68.80
17795;DHT22;9021;50.882;4.326;2023-06-14T03:38:17;21.50;69.00
17795;DHT22;9021;50.882;4.326;2023-06-14T03:40:42;21.40;69.00
17795;DHT22;9021;50.882;4.326;2023-06-14T03:43:08;21.40;69.10
17795;DHT22;9021;50.882;4.326;2023-06-14T03:45:33;21.40;69.30
17795;DHT22;9021;50.882;4.326;2023-06-14T03:47:59;21.40;68.70
17795;DHT22;9021;50.882;4.326;2023-06-14T03:50:26;21.30;68.90
17795;DHT22;9021;50.882;4.326;2023-06-14T03:52:52;21.20;69.70
17795;DHT22;9021;50.882;4.326;2023-06-14T03:55:17;21.20;69.70
17795;DHT22;9021;50.882;4.326;2023-06-14T03:57:43;21.30;69.50
17795;DHT22;9021;50.882;4.326;2023-06-14T04:00:09;21.20;69.50
17795;DHT22;9021;50.882;4.326;2023-06-14T04:02:35;21.20;69.20
17795;DHT22;9021;50.882;4.326;2023-06-14T04:05:02;21.20;69.30
17795;DHT22;9021;50.882;4.326;2023-06-14T04:07:27;21.00;69.30
17795;DHT22;9021;50.882;4.326;2023-06-14T04:09:53;21.00;69.50
17795;DHT22;9021;50.882;4.326;2023-06-14T04:12:19;21.00;69.70
17795;DHT22;9021;50.882;4.326;2023-06-14T04:14:44;21.00;70.50
17795;DHT22;9021;50.882;4.326;2023-06-14T04:17:10;21.00;69.50
17795;DHT22;9021;50.882;4.326;2023-06-14T04:19:35;21.00;69.90
17795;DHT22;9021;50.882;4.326;2023-06-14T04:22:01;21.10;69.90
17795;DHT22;9021;50.882;4.326;2023-06-14T04:24:27;21.00;69.70
17795;DHT22;9021;50.882;4.326;2023-06-14T04:27:00;21.00;70.80
17795;DHT22;9021;50.882;4.326;2023-06-14T04:29:28;21.00;71.70
17795;DHT22;9021;50.882;4.326;2023-06-14T04:31:55;21.20;70.90
17795;DHT22;9021;50.882;4.326;2023-06-14T04:34:27;21.10;69.70
17795;DHT22;9021;50.882;4.326;2023-06-14T04:36:59;21.10;69.70
17795;DHT22;9021;50.882;4.326;2023-06-14T04:39:26;21.10;70.50
17795;DHT22;9021;50.882;4.326;2023-06-14T04:41:52;21.00;69.90
17795;DHT22;9021;50.882;4.326;2023-06-14T04:44:22;21.00;70.30
17795;DHT22;9021;50.882;4.326;2023-06-14T04:46:49;21.00;70.00
17795;DHT22;9021;50.882;4.326;2023-06-14T04:49:15;21.10;70.60
17795;DHT22;9021;50.882;4.326;2023-06-14T04:51:41;21.10;69.90
17795;DHT22;9021;50.882;4.326;2023-06-14T04:54:10;21.10;71.10
17795;DHT22;9021;50.882;4.326;2023-06-14T04:56:39;21.20;69.50
17795;DHT22;9021;50.882;4.326;2023-06-14T04:59:05;21.20;70.50
17795;DHT22;9021;50.882;4.326;2023-06-14T05:01:31;21.20;70.20
17795;DHT22;9021;50.882;4.326;2023-06-14T05:03:59;21.20;70.30
17795;DHT22;9021;50.882;4.326;2023-06-14T05:06:25;21.30;69.60
17795;DHT22;9021;50.882;4.326;2023-06-14T05:08:53;21.20;69.40
17795;DHT22;9021;50.882;4.326;2023-06-14T05:11:18;21.20;69.50
17795;DHT22;9021;50.882;4.326;2023-06-14T05:13:43;21.10;70.20
17795;DHT22;9021;50.882;4.326;2023-06-14T05:16:10;21.10;70.00
17795;DHT22;9021;50.882;4.326;2023-06-14T05:18:36;20.90;69.80
17795;DHT22;9021;50.882;4.326;2023-06-14T05:21:02;20.80;70.20
17795;DHT22;9021;50.882;4.326;2023-06-14T05:23:29;20.80;70.00
17795;DHT22;9021;50.882;4.326;2023-06-14T05:25:55;20.80;70.30
17795;DHT22;9021;50.882;4.326;2023-06-14T05:28:22;20.80;70.50
17795;DHT22;9021;50.882;4.326;2023-06-14T05:30:47;20.90;70.20
17795;DHT22;9021;50.882;4.326;2023-06-14T05:33:15;21.00;70.40
17795;DHT22;9021;50.882;4.326;2023-06-14T05:35:41;21.00;70.00
17795;DHT22;9021;50.882;4.326;2023-06-14T05:38:06;20.90;69.90
17795;DHT22;9021;50.882;4.326;2023-06-14T05:40:33;20.90;70.10
17795;DHT22;9021;50.882;4.326;2023-06-14T05:42:58;21.00;70.30
17795;DHT22;9021;50.882;4.326;2023-06-14T05:45:24;21.00;70.10
17795;DHT22;9021;50.882;4.326;2023-06-14T05:47:49;21.10;69.80
17795;DHT22;9021;50.882;4.326;2023-06-14T05:50:15;21.20;69.90
17795;DHT22;9021;50.882;4.326;2023-06-14T05:52:41;21.30;69.80
17795;DHT22;9021;50.882;4.326;2023-06-14T05:55:06;21.40;71.00
17795;DHT22;9021;50.882;4.326;2023-06-14T05:57:32;21.60;70.20
17795;DHT22;9021;50.882;4.326;2023-06-14T05:59:57;21.60;69.20
17795;DHT22;9021;50.882;4.326;2023-06-14T06:02:23;21.60;69.60
17795;DHT22;9021;50.882;4.326;2023-06-14T06:04:49;21.60;69.40
17795;DHT22;9021;50.882;4.326;2023-06-14T06:07:15;21.90;69.10
17795;DHT22;9021;50.882;4.326;2023-06-14T06:09:40;22.00;68.30
17795;DHT22;9021;50.882;4.326;2023-06-14T06:12:06;21.70;69.00
17795;DHT22;9021;50.882;4.326;2023-06-14T06:14:32;21.60;69.70
17795;DHT22;9021;50.882;4.326;2023-06-14T06:16:57;21.80;70.40
17795;DHT22;9021;50.882;4.326;2023-06-14T06:19:23;22.00;68.80
17795;DHT22;9021;50.882;4.326;2023-06-14T06:21:48;22.20;68.50
17795;DHT22;9021;50.882;4.326;2023-06-14T06:24:14;22.30;68.00
17795;DHT22;9021;50.882;4.326;2023-06-14T06:26:39;22.20;68.40
17795;DHT22;9021;50.882;4.326;2023-06-14T06:29:05;22.30;68.80
17795;DHT22;9021;50.882;4.326;2023-06-14T06:31:31;22.60;68.90
17795;DHT22;9021;50.882;4.326;2023-06-14T06:33:56;22.80;68.60
17795;DHT22;9021;50.882;4.326;2023-06-14T06:36:22;22.70;67.30
17795;DHT22;9021;50.882;4.326;2023-06-14T06:38:50;22.60;67.90
17795;DHT22;9021;50.882;4.326;2023-06-14T06:41:15;22.70;68.60
17795;DHT22;9021;50.882;4.326;2023-06-14T06:43:41;22.90;68.30
17795;DHT22;9021;50.882;4.326;2023-06-14T06:46:07;23.30;67.90
17795;DHT22;9021;50.882;4.326;2023-06-14T06:48:32;23.50;66.60
17795;DHT22;9021;50.882;4.326;2023-06-14T06:50:57;23.90;65.90
17795;DHT22;9021;50.882;4.326;2023-06-14T06:53:23;24.70;64.50
17795;DHT22;9021;50.882;4.326;2023-06-14T06:55:48;25.70;63.40
17795;DHT22;9021;50.882;4.326;2023-06-14T06:58:14;26.80;62.50
17795;DHT22;9021;50.882;4.326;2023-06-14T07:00:40;27.90;61.30
17795;DHT22;9021;50.882;4.326;2023-06-14T07:03:06;28.80;59.30
17795;DHT22;9021;50.882;4.326;2023-06-14T07:05:31;29.70;58.30
17795;DHT22;9021;50.882;4.326;2023-06-14T07:07:57;30.60;56.80
17795;DHT22;9021;50.882;4.326;2023-06-14T07:10:23;30.10;57.20
17795;DHT22;9021;50.882;4.326;2023-06-14T07:12:50;30.40;57.10
17795;DHT22;9021;50.882;4.326;2023-06-14T07:15:15;31.70;56.60
17795;DHT22;9021;50.882;4.326;2023-06-14T07:17:41;33.50;55.70
17795;DHT22;9021;50.882;4.326;2023-06-14T07:20:07;35.10;54.00
17795;DHT22;9021;50.882;4.326;2023-06-14T07:22:34;36.10;52.40
17795;DHT22;9021;50.882;4.326;2023-06-14T07:24:59;36.40;51.20
17795;DHT22;9021;50.882;4.326;2023-06-14T07:27:25;35.80;51.50
17795;DHT22;9021;50.882;4.326;2023-06-14T07:29:50;36.00;51.00
17795;DHT22;9021;50.882;4.326;2023-06-14T07:32:16;35.00;51.40
17795;DHT22;9021;50.882;4.326;2023-06-14T07:34:41;34.20;51.80
17795;DHT22;9021;50.882;4.326;2023-06-14T07:37:07;34.00;52.30
17795;DHT22;9021;50.882;4.326;2023-06-14T07:39:32;33.90;52.20
17795;DHT22;9021;50.882;4.326;2023-06-14T07:41:58;34.50;51.90
17795;DHT22;9021;50.882;4.326;2023-06-14T07:44:23;35.20;51.80
17795;DHT22;9021;50.882;4.326;2023-06-14T07:46:49;36.30;51.50
17795;DHT22;9021;50.882;4.326;2023-06-14T07:49:17;36.30;50.80
17795;DHT22;9021;50.882;4.326;2023-06-14T07:51:42;36.20;50.80
17795;DHT22;9021;50.882;4.326;2023-06-14T07:54:09;36.30;51.00
17795;DHT22;9021;50.882;4.326;2023-06-14T07:56:35;37.90;51.00
17795;DHT22;9021;50.882;4.326;2023-06-14T07:59:01;39.60;50.60
17795;DHT22;9021;50.882;4.326;2023-06-14T08:01:27;40.10;49.10
17795;DHT22;9021;50.882;4.326;2023-06-14T08:03:53;41.40;49.80
17795;DHT22;9021;50.882;4.326;2023-06-14T08:06:19;42.50;48.20
17795;DHT22;9021;50.882;4.326;2023-06-14T08:08:44;43.20;48.00
17795;DHT22;9021;50.882;4.326;2023-06-14T08:11:10;44.00;47.30
17795;DHT22;9021;50.882;4.326;2023-06-14T08:13:35;44.80;47.60
17795;DHT22;9021;50.882;4.326;2023-06-14T08:16:01;44.20;45.80
17795;DHT22;9021;50.882;4.326;2023-06-14T08:18:26;42.90;46.10
17795;DHT22;9021;50.882;4.326;2023-06-14T08:20:52;42.10;47.10
17795;DHT22;9021;50.882;4.326;2023-06-14T08:23:19;41.90;46.80
17795;DHT22;9021;50.882;4.326;2023-06-14T08:25:46;42.00;46.70
17795;DHT22;9021;50.882;4.326;2023-06-14T08:28:11;42.90;46.30
17795;DHT22;9021;50.882;4.326;2023-06-14T08:30:37;43.30;46.30
17795;DHT22;9021;50.882;4.326;2023-06-14T08:33:02;44.10;46.90
17795;DHT22;9021;50.882;4.326;2023-06-14T08:35:28;45.00;46.00
17795;DHT22;9021;50.882;4.326;2023-06-14T08:37:54;44.40;45.80
17795;DHT22;9021;50.882;4.326;2023-06-14T08:40:22;42.10;46.50
17795;DHT22;9021;50.882;4.326;2023-06-14T08:42:52;41.80;47.30
17795;DHT22;9021;50.882;4.326;2023-06-14T08:45:18;42.40;47.00
17795;DHT22;9021;50.882;4.326;2023-06-14T08:47:44;42.80;46.40
17795;DHT22;9021;50.882;4.326;2023-06-14T08:50:10;43.20;46.40
17795;DHT22;9021;50.882;4.326;2023-06-14T08:52:38;44.50;47.10
17795;DHT22;9021;50.882;4.326;2023-06-14T08:55:10;44.70;46.20
17795;DHT22;9021;50.882;4.326;2023-06-14T08:57:36;45.30;46.00
17795;DHT22;9021;50.882;4.326;2023-06-14T09:00:02;43.70;46.10
17795;DHT22;9021;50.882;4.326;2023-06-14T09:02:35;43.90;45.90
17795;DHT22;9021;50.882;4.326;2023-06-14T09:05:01;43.10;46.40
17795;DHT22;9021;50.882;4.326;2023-06-14T09:07:26;42.70;47.00
17795;DHT22;9021;50.882;4.326;2023-06-14T09:10:05;42.80;46.70
17795;DHT22;9021;50.882;4.326;2023-06-14T09:12:31;42.60;47.20
17795;DHT22;9021;50.882;4.326;2023-06-14T09:14:56;44.20;47.30
17795;DHT22;9021;50.882;4.326;2023-06-14T09:17:22;45.40;46.20
17795;DHT22;9021;50.882;4.326;2023-06-14T09:19:48;45.50;45.60
17795;DHT22;9021;50.882;4.326;2023-06-14T09:22:14;46.40;45.50
17795;DHT22;9021;50.882;4.326;2023-06-14T09:24:41;46.90;45.00
17795;DHT22;9021;50.882;4.326;2023-06-14T09:27:07;45.40;44.60
17795;DHT22;9021;50.882;4.326;2023-06-14T09:29:33;43.90;45.50
17795;DHT22;9021;50.882;4.326;2023-06-14T09:31:58;44.40;46.40
17795;DHT22;9021;50.882;4.326;2023-06-14T09:34:24;44.70;45.80
17795;DHT22;9021;50.882;4.326;2023-06-14T09:36:49;43.40;46.60
17795;DHT22;9021;50.882;4.326;2023-06-14T09:39:16;44.40;46.40
17795;DHT22;9021;50.882;4.326;2023-06-14T09:41:42;45.50;46.50
17795;DHT22;9021;50.882;4.326;2023-06-14T09:44:08;45.70;45.00
17795;DHT22;9021;50.882;4.326;2023-06-14T09:46:35;44.60;45.30
17795;DHT22;9021;50.882;4.326;2023-06-14T09:49:01;43.20;46.00
17795;DHT22;9021;50.882;4.326;2023-06-14T09:51:27;44.10;46.20
17795;DHT22;9021;50.882;4.326;2023-06-14T09:53:53;44.20;47.10
17795;DHT22;9021;50.882;4.326;2023-06-14T09:56:25;44.40;44.90
17795;DHT22;9021;50.882;4.326;2023-06-14T09:58:56;45.40;45.70
17795;DHT22;9021;50.882;4.326;2023-06-14T10:01:25;45.00;45.30
17795;DHT22;9021;50.882;4.326;2023-06-14T10:04:04;46.00;45.50
17795;DHT22;9021;50.882;4.326;2023-06-14T10:06:30;46.60;45.20
17795;DHT22;9021;50.882;4.326;2023-06-14T10:08:57;47.30;44.00
17795;DHT22;9021;50.882;4.326;2023-06-14T10:11:25;44.50;44.50
17795;DHT22;9021;50.882;4.326;2023-06-14T10:13:50;44.70;44.40
17795;DHT22;9021;50.882;4.326;2023-06-14T10:16:20;45.10;43.80
17795;DHT22;9021;50.882;4.326;2023-06-14T10:18:49;44.90;43.90
17795;DHT22;9021;50.882;4.326;2023-06-14T10:23:44;44.90;44.40
17795;DHT22;9021;50.882;4.326;2023-06-14T10:26:18;45.90;44.60
17795;DHT22;9021;50.882;4.326;2023-06-14T10:28:50;45.70;43.50
17795;DHT22;9021;50.882;4.326;2023-06-14T10:31:20;43.20;44.60
17795;DHT22;9021;50.882;4.326;2023-06-14T10:33:50;43.60;44.80
17795;DHT22;9021;50.882;4.326;2023-06-14T10:39:00;45.00;43.50
17795;DHT22;9021;50.882;4.326;2023-06-14T10:41:26;43.90;43.90
17795;DHT22;9021;50.882;4.326;2023-06-14T10:43:52;44.70;43.70
17795;DHT22;9021;50.882;4.326;2023-06-14T10:46:35;44.90;43.10
17795;DHT22;9021;50.882;4.326;2023-06-14T10:49:01;45.00;43.30
17795;DHT22;9021;50.882;4.326;2023-06-14T10:51:29;44.50;43.40
17795;DHT22;9021;50.882;4.326;2023-06-14T10:53:56;45.20;43.50
17795;DHT22;9021;50.882;4.326;2023-06-14T10:56:26;44.70;42.80
17795;DHT22;9021;50.882;4.326;2023-06-14T10:58:52;43.60;43.20
17795;DHT22;9021;50.882;4.326;2023-06-14T11:01:28;42.60;43.60
17795;DHT22;9021;50.882;4.326;2023-06-14T11:03:57;44.10;44.10
17795;DHT22;9021;50.882;4.326;2023-06-14T11:06:30;44.60;43.00
17795;DHT22;9021;50.882;4.326;2023-06-14T11:11:31;44.70;42.50
17795;DHT22;9021;50.882;4.326;2023-06-14T11:13:58;45.00;42.90
17795;DHT22;9021;50.882;4.326;2023-06-14T11:16:25;45.80;44.10
17795;DHT22;9021;50.882;4.326;2023-06-14T11:18:51;46.20;43.20
17795;DHT22;9021;50.882;4.326;2023-06-14T11:21:17;46.30;42.90
17795;DHT22;9021;50.882;4.326;2023-06-14T11:23:52;45.90;42.60
17795;DHT22;9021;50.882;4.326;2023-06-14T11:26:26;45.60;42.70
17795;DHT22;9021;50.882;4.326;2023-06-14T11:28:54;46.30;43.00
17795;DHT22;9021;50.882;4.326;2023-06-14T11:31:20;46.40;42.20
17795;DHT22;9021;50.882;4.326;2023-06-14T11:33:49;45.60;43.40
17795;DHT22;9021;50.882;4.326;2023-06-14T11:36:20;45.90;43.30
17795;DHT22;9021;50.882;4.326;2023-06-14T11:38:45;44.60;42.60
17795;DHT22;9021;50.882;4.326;2023-06-14T11:41:11;45.80;43.40
17795;DHT22;9021;50.882;4.326;2023-06-14T11:43:36;43.70;42.50
17795;DHT22;9021;50.882;4.326;2023-06-14T11:46:02;43.00;43.10
17795;DHT22;9021;50.882;4.326;2023-06-14T11:48:40;43.10;43.70
17795;DHT22;9021;50.882;4.326;2023-06-14T11:51:06;42.90;44.20
17795;DHT22;9021;50.882;4.326;2023-06-14T11:53:31;42.70;43.80
17795;DHT22;9021;50.882;4.326;2023-06-14T11:55:57;42.60;43.80
17795;DHT22;9021;50.882;4.326;2023-06-14T11:58:23;42.50;43.70
17795;DHT22;9021;50.882;4.326;2023-06-14T12:00:49;42.80;44.70
17795;DHT22;9021;50.882;4.326;2023-06-14T12:03:14;43.30;44.30
17795;DHT22;9021;50.882;4.326;2023-06-14T12:05:40;43.60;43.10
17795;DHT22;9021;50.882;4.326;2023-06-14T12:08:06;43.00;43.40
17795;DHT22;9021;50.882;4.326;2023-06-14T12:10:39;41.30;42.90
17795;DHT22;9021;50.882;4.326;2023-06-14T12:13:08;38.90;44.30
17795;DHT22;9021;50.882;4.326;2023-06-14T12:15:34;38.30;45.40
17795;DHT22;9021;50.882;4.326;2023-06-14T12:17:59;37.30;45.40
17795;DHT22;9021;50.882;4.326;2023-06-14T12:20:29;37.00;46.20
17795;DHT22;9021;50.882;4.326;2023-06-14T12:22:56;38.20;46.60
17795;DHT22;9021;50.882;4.326;2023-06-14T12:25:28;39.10;45.80
17795;DHT22;9021;50.882;4.326;2023-06-14T12:27:56;39.50;45.40
17795;DHT22;9021;50.882;4.326;2023-06-14T12:30:22;39.80;45.70
17795;DHT22;9021;50.882;4.326;2023-06-14T12:32:47;39.90;45.70
17795;DHT22;9021;50.882;4.326;2023-06-14T12:35:13;40.00;45.60
17795;DHT22;9021;50.882;4.326;2023-06-14T12:37:39;40.10;46.20
17795;DHT22;9021;50.882;4.326;2023-06-14T12:40:05;40.10;45.60
17795;DHT22;9021;50.882;4.326;2023-06-14T12:42:31;39.90;45.10
17795;DHT22;9021;50.882;4.326;2023-06-14T12:44:56;38.50;45.10
17795;DHT22;9021;50.882;4.326;2023-06-14T12:47:22;37.50;45.40
17795;DHT22;9021;50.882;4.326;2023-06-14T12:49:47;36.30;46.20
17795;DHT22;9021;50.882;4.326;2023-06-14T12:52:13;35.30;46.60
17795;DHT22;9021;50.882;4.326;2023-06-14T12:54:38;35.30;46.90
17795;DHT22;9021;50.882;4.326;2023-06-14T12:57:05;35.30;47.80
17795;DHT22;9021;50.882;4.326;2023-06-14T12:59:31;34.40;48.20
17795;DHT22;9021;50.882;4.326;2023-06-14T13:02:19;34.70;48.10
17795;DHT22;9021;50.882;4.326;2023-06-14T13:04:44;33.40;48.10
17795;DHT22;9021;50.882;4.326;2023-06-14T13:07:10;32.40;49.20
17795;DHT22;9021;50.882;4.326;2023-06-14T13:09:36;32.50;49.60
17795;DHT22;9021;50.882;4.326;2023-06-14T13:12:02;33.10;50.30
17795;DHT22;9021;50.882;4.326;2023-06-14T13:14:27;33.30;48.80
17795;DHT22;9021;50.882;4.326;2023-06-14T13:16:53;33.50;49.00
17795;DHT22;9021;50.882;4.326;2023-06-14T13:19:18;33.40;48.00
17795;DHT22;9021;50.882;4.326;2023-06-14T13:21:44;32.20;49.90
17795;DHT22;9021;50.882;4.326;2023-06-14T13:24:09;32.30;49.70
17795;DHT22;9021;50.882;4.326;2023-06-14T13:26:35;32.40;49.70
17795;DHT22;9021;50.882;4.326;2023-06-14T13:29:00;32.40;49.80
17795;DHT22;9021;50.882;4.326;2023-06-14T13:31:26;32.50;50.60
17795;DHT22;9021;50.882;4.326;2023-06-14T13:33:51;33.00;50.40
17795;DHT22;9021;50.882;4.326;2023-06-14T13:36:17;33.50;49.60
17795;DHT22;9021;50.882;4.326;2023-06-14T13:38:42;33.80;48.80
17795;DHT22;9021;50.882;4.326;2023-06-14T13:41:08;33.50;48.40
17795;DHT22;9021;50.882;4.326;2023-06-14T13:43:33;33.10;48.40
17795;DHT22;9021;50.882;4.326;2023-06-14T13:45:59;32.90;49.10
17795;DHT22;9021;50.882;4.326;2023-06-14T13:48:25;32.40;48.40
17795;DHT22;9021;50.882;4.326;2023-06-14T13:50:50;31.90;48.70
17795;DHT22;9021;50.882;4.326;2023-06-14T13:53:16;32.10;50.20
17795;DHT22;9021;50.882;4.326;2023-06-14T13:55:41;32.70;51.30
17795;DHT22;9021;50.882;4.326;2023-06-14T13:58:07;33.20;50.00
17795;DHT22;9021;50.882;4.326;2023-06-14T14:00:32;33.60;49.70
17795;DHT22;9021;50.882;4.326;2023-06-14T14:02:57;33.80;48.70
17795;DHT22;9021;50.882;4.326;2023-06-14T14:05:25;33.00;47.80
17795;DHT22;9021;50.882;4.326;2023-06-14T14:07:54;32.40;48.00
17795;DHT22;9021;50.882;4.326;2023-06-14T14:10:20;32.10;47.90
17795;DHT22;9021;50.882;4.326;2023-06-14T14:12:45;32.30;48.30
17795;DHT22;9021;50.882;4.326;2023-06-14T14:15:11;32.50;48.50
17795;DHT22;9021;50.882;4.326;2023-06-14T14:17:40;32.20;48.90
17795;DHT22;9021;50.882;4.326;2023-06-14T14:20:05;32.10;49.10
17795;DHT22;9021;50.882;4.326;2023-06-14T14:22:32;32.20;48.60
17795;DHT22;9021;50.882;4.326;2023-06-14T14:24:57;31.60;48.30
17795;DHT22;9021;50.882;4.326;2023-06-14T14:27:23;31.50;49.10
17795;DHT22;9021;50.882;4.326;2023-06-14T14:29:48;31.60;49.20
17795;DHT22;9021;50.882;4.326;2023-06-14T14:32:14;31.50;48.60
17795;DHT22;9021;50.882;4.326;2023-06-14T14:34:40;31.70;49.20
17795;DHT22;9021;50.882;4.326;2023-06-14T14:37:05;32.00;50.00
17795;DHT22;9021;50.882;4.326;2023-06-14T14:39:31;32.50;49.50
17795;DHT22;9021;50.882;4.326;2023-06-14T14:41:56;32.80;47.50
17795;DHT22;9021;50.882;4.326;2023-06-14T14:44:22;32.40;47.00
17795;DHT22;9021;50.882;4.326;2023-06-14T14:46:47;32.50;48.80
17795;DHT22;9021;50.882;4.326;2023-06-14T14:49:13;32.90;48.20
17795;DHT22;9021;50.882;4.326;2023-06-14T14:51:38;33.10;47.90
17795;DHT22;9021;50.882;4.326;2023-06-14T14:54:05;33.20;47.20
17795;DHT22;9021;50.882;4.326;2023-06-14T14:56:31;33.20;48.30
17795;DHT22;9021;50.882;4.326;2023-06-14T14:58:56;33.00;46.60
17795;DHT22;9021;50.882;4.326;2023-06-14T15:01:21;32.90;47.00
17795;DHT22;9021;50.882;4.326;2023-06-14T15:03:47;32.40;47.60
17795;DHT22;9021;50.882;4.326;2023-06-14T15:06:12;32.10;47.50
17795;DHT22;9021;50.882;4.326;2023-06-14T15:08:38;31.80;47.40
17795;DHT22;9021;50.882;4.326;2023-06-14T15:11:03;31.80;47.90
17795;DHT22;9021;50.882;4.326;2023-06-14T15:13:29;32.00;48.80
17795;DHT22;9021;50.882;4.326;2023-06-14T15:15:54;32.40;48.40
17795;DHT22;9021;50.882;4.326;2023-06-14T15:18:20;32.60;47.50
17795;DHT22;9021;50.882;4.326;2023-06-14T15:20:47;32.80;48.60
17795;DHT22;9021;50.882;4.326;2023-06-14T15:23:12;32.80;47.50
17795;DHT22;9021;50.882;4.326;2023-06-14T15:25:44;32.30;47.40
17795;DHT22;9021;50.882;4.326;2023-06-14T15:28:10;32.20;47.60
17795;DHT22;9021;50.882;4.326;2023-06-14T15:30:35;32.00;47.10
17795;DHT22;9021;50.882;4.326;2023-06-14T15:33:01;31.60;47.00
17795;DHT22;9021;50.882;4.326;2023-06-14T15:35:26;31.30;47.90
17795;DHT22;9021;50.882;4.326;2023-06-14T15:37:52;31.70;49.00
17795;DHT22;9021;50.882;4.326;2023-06-14T15:40:17;31.90;47.90
17795;DHT22;9021;50.882;4.326;2023-06-14T15:42:43;31.90;47.50
17795;DHT22;9021;50.882;4.326;2023-06-14T15:45:08;31.90;48.20
17795;DHT22;9021;50.882;4.326;2023-06-14T15:47:34;31.90;47.90
17795;DHT22;9021;50.882;4.326;2023-06-14T15:49:59;31.90;48.00